Time;durP1;ratioP1;P1;durP2;ratioP2;P2;SDS_P1;SDS_P2;PMS_P1;PMS_P2;Temp;Humidity;BMP_temperature;BMP_pressure;BME280_temperature;BME280_humidity;BME280_pressure;Samples;Min_cycle;Max_cycle;Signal;HPM_P1;HPM_P2
2024/03/04 00:02:31;;;;;;;33.40;18.70;;;;;;;7.22;85.23;100148.09;106560;1260;98971;-79
2024/03/04 00:05:17;;;;;;;34.60;18.30;;;;;;;7.20;85.16;100148.80;105963;1259;97964;-80
2024/03/04 00:08:03;;;;;;;28.40;17.20;;;;;;;7.19;85.19;100150.34;105900;1263;102327;-78
2024/03/04 00:10:48;;;;;;;28.30;16.80;;;;;;;7.17;85.37;100144.69;105960;1263;101022;-81
2024/03/04 00:13:35;;;;;;;25.10;16.50;;;;;;;7.19;85.58;100144.34;105907;1263;98054;-80
2024/03/04 00:16:21;;;;;;;31.10;17.50;;;;;;;7.22;85.63;100143.30;105812;1264;97970;-80
2024/03/04 00:19:06;;;;;;;32.00;18.50;;;;;;;7.23;85.61;100141.52;105894;1260;98476;-80
2024/03/04 00:21:56;;;;;;;33.60;18.10;;;;;;;7.21;85.14;100133.45;105901;1260;101383;-80
2024/03/04 00:24:41;;;;;;;25.50;15.20;;;;;;;7.20;85.42;100127.16;106474;1259;100739;-80
2024/03/04 00:27:27;;;;;;;29.80;17.20;;;;;;;7.21;85.49;100120.25;106548;1264;98719;-82
2024/03/04 00:30:13;;;;;;;27.90;16.70;;;;;;;7.22;85.64;100117.45;106377;1263;98638;-81
2024/03/04 00:32:59;;;;;;;28.70;15.80;;;;;;;7.23;85.47;100121.14;106373;1259;98511;-80
2024/03/04 00:35:44;;;;;;;25.00;15.40;;;;;;;7.22;85.38;100124.05;106202;1259;101388;-81
2024/03/04 00:38:30;;;;;;;24.80;15.30;;;;;;;7.20;85.45;100124.65;106437;1259;99971;-79
2024/03/04 00:41:24;;;;;;;27.30;14.80;;;;;;;7.18;85.65;100126.70;105916;1263;99066;-79
2024/03/04 00:44:10;;;;;;;23.90;14.80;;;;;;;7.16;85.64;100128.15;106022;1259;98948;-79
2024/03/04 00:46:56;;;;;;;24.10;14.90;;;;;;;7.16;85.54;100128.51;106014;1260;97893;-79
2024/03/04 00:49:45;;;;;;;26.60;15.30;;;;;;;7.16;85.64;100124.09;105968;1264;101343;-80
2024/03/04 00:52:30;;;;;;;28.40;15.50;;;;;;;7.16;85.53;100120.29;106423;1260;99091;-79
2024/03/04 00:55:17;;;;;;;23.60;15.00;;;;;;;7.16;85.47;100114.80;105838;1264;98425;-78
2024/03/04 00:58:03;;;;;;;34.40;18.00;;;;;;;7.16;85.49;100112.40;105931;1265;97962;-81
2024/03/04 01:00:49;;;;;;;32.40;16.50;;;;;;;7.15;85.35;100109.58;105895;1263;98480;-80
2024/03/04 01:03:35;;;;;;;30.30;16.90;;;;;;;7.14;85.38;100106.48;106065;1264;102374;-80
2024/03/04 01:06:21;;;;;;;28.90;16.40;;;;;;;7.15;85.80;100103.02;105997;1262;99126;-81
2024/03/04 01:09:10;;;;;;;31.50;18.70;;;;;;;7.17;85.62;100100.54;105863;1263;99052;-80
2024/03/04 01:11:56;;;;;;;30.80;17.50;;;;;;;7.15;85.55;100099.80;105937;1260;97966;-79
2024/03/04 01:14:42;;;;;;;27.80;16.20;;;;;;;7.15;85.47;100106.30;105924;1263;98419;-79
2024/03/04 01:17:28;;;;;;;29.60;15.60;;;;;;;7.14;85.53;100108.84;105864;1263;102614;-80
2024/03/04 01:20:14;;;;;;;27.80;16.20;;;;;;;7.12;85.46;100110.46;105866;1265;100097;-80
2024/03/04 01:23:00;;;;;;;27.10;15.50;;;;;;;7.10;85.40;100109.84;105891;1263;98717;-80
2024/03/04 01:25:46;;;;;;;34.10;16.60;;;;;;;7.07;85.20;100109.46;105921;1263;98099;-79
2024/03/04 01:28:32;;;;;;;32.80;16.80;;;;;;;7.03;85.26;100106.02;105860;1265;99639;-79
2024/03/04 01:31:21;;;;;;;30.50;17.10;;;;;;;7.00;85.40;100099.17;106004;1262;102628;-78
2024/03/04 01:34:07;;;;;;;31.10;17.30;;;;;;;7.01;85.44;100093.32;106363;1263;99162;-80
2024/03/04 01:36:53;;;;;;;27.50;16.00;;;;;;;7.01;85.58;100092.79;105887;1264;99038;-80
2024/03/04 01:39:39;;;;;;;26.90;15.90;;;;;;;6.98;85.59;100094.84;105960;1261;97784;-80
2024/03/04 01:42:25;;;;;;;28.60;15.20;;;;;;;6.94;85.72;100093.52;105910;1263;98491;-79
2024/03/04 01:45:25;;;;;;;21.90;13.90;;;;;;;6.90;85.65;100088.49;105928;1261;102685;-80
2024/03/04 01:48:11;;;;;;;22.20;15.60;;;;;;;6.88;85.88;100087.31;105918;1263;100103;-80
2024/03/04 01:50:58;;;;;;;24.60;15.20;;;;;;;6.85;85.81;100085.52;105772;1264;98711;-79
2024/03/04 01:53:44;;;;;;;29.30;15.90;;;;;;;6.84;85.85;100083.71;105691;1265;185994;-79
2024/03/04 01:56:31;;;;;;;25.50;14.80;;;;;;;6.84;85.91;100075.58;105984;1260;98485;-80
2024/03/04 01:59:18;;;;;;;23.70;14.40;;;;;;;6.82;86.11;100070.67;105990;1260;102715;-79
2024/03/04 02:02:05;;;;;;;27.80;15.60;;;;;;;6.81;86.26;100071.45;106483;1264;99856;-79
2024/03/04 02:04:51;;;;;;;26.30;15.20;;;;;;;6.82;86.05;100069.77;106577;1264;99000;-80
2024/03/04 02:07:38;;;;;;;25.20;14.90;;;;;;;6.77;85.86;100065.87;105917;1263;97976;-80
2024/03/04 02:10:23;;;;;;;28.00;16.00;;;;;;;6.75;85.86;100068.41;105903;1265;98058;-79
2024/03/04 02:13:10;;;;;;;28.10;16.30;;;;;;;6.73;85.88;100067.60;105954;1267;102667;-79
2024/03/04 02:15:56;;;;;;;29.00;16.10;;;;;;;6.69;85.69;100065.59;105989;1260;100395;-79
2024/03/04 02:18:42;;;;;;;26.80;17.20;;;;;;;6.63;85.58;100069.98;105805;1273;97983;-80
2024/03/04 02:21:33;;;;;;;27.10;16.30;;;;;;;6.58;85.59;100072.34;105816;1263;97761;-78
2024/03/04 02:24:19;;;;;;;28.70;17.70;;;;;;;6.54;85.84;100072.65;106457;1263;98043;-80
2024/03/04 02:27:05;;;;;;;27.90;15.20;;;;;;;6.50;85.80;100075.36;106322;1259;102635;-80
2024/03/04 02:29:51;;;;;;;25.20;16.50;;;;;;;6.47;85.64;100078.20;106449;1261;99141;-80
2024/03/04 02:32:38;;;;;;;25.10;15.70;;;;;;;6.44;85.75;100085.00;105872;1260;97923;-79
2024/03/04 02:35:29;;;;;;;29.70;16.70;;;;;;;6.39;85.85;100087.21;106353;1260;97960;-81
2024/03/04 02:38:16;;;;;;;26.40;15.60;;;;;;;6.34;85.92;100091.05;106488;1268;95892;-80
2024/03/04 02:41:04;;;;;;;30.60;15.90;;;;;;;6.30;85.79;100096.49;106427;1261;101440;-80
2024/03/04 02:43:51;;;;;;;27.30;15.00;;;;;;;6.25;85.69;100096.34;105949;1261;99105;-80
2024/03/04 02:46:39;;;;;;;24.20;15.10;;;;;;;6.22;86.06;100096.09;106293;1261;97951;-79
2024/03/04 02:49:24;;;;;;;29.90;17.00;;;;;;;6.20;86.12;100090.73;106365;1265;98031;-79
2024/03/04 02:52:10;;;;;;;26.70;16.40;;;;;;;6.14;86.01;100087.25;106263;1263;97866;-80
2024/03/04 02:54:57;;;;;;;26.80;15.80;;;;;;;6.11;86.10;100088.54;106362;1263;102042;-80
2024/03/04 02:57:43;;;;;;;22.90;14.20;;;;;;;6.04;86.04;100088.05;106001;1263;99209;-79
2024/03/04 03:00:28;;;;;;;30.50;16.70;;;;;;;6.00;86.09;100086.08;105969;1267;98149;-80
2024/03/04 03:03:14;;;;;;;27.20;15.40;;;;;;;5.98;86.37;100086.68;106366;1259;97963;-79
2024/03/04 03:06:00;;;;;;;25.10;15.40;;;;;;;5.96;86.56;100088.45;106445;1263;98459;-80
2024/03/04 03:08:46;;;;;;;25.10;15.10;;;;;;;5.93;86.48;100098.52;106440;1263;101336;-81
2024/03/04 03:11:32;;;;;;;29.10;16.20;;;;;;;5.91;86.69;100104.14;106472;1261;99353;-80
2024/03/04 03:14:17;;;;;;;23.90;15.00;;;;;;;5.90;86.75;100103.17;105874;1273;97972;-79
2024/03/04 03:17:03;;;;;;;26.90;15.80;;;;;;;5.87;86.63;100100.66;106275;1259;97987;-79
2024/03/04 03:19:51;;;;;;;28.00;15.70;;;;;;;5.85;86.79;100097.47;106402;1263;98004;-80
2024/03/04 03:22:37;;;;;;;30.20;17.10;;;;;;;5.85;86.99;100093.19;106586;1263;101364;-80
2024/03/04 03:25:23;;;;;;;29.90;16.30;;;;;;;5.82;86.90;100094.76;106587;1259;99192;-80
2024/03/04 03:28:08;;;;;;;29.30;17.90;;;;;;;5.77;87.08;100093.00;106542;1263;97744;-82
2024/03/04 03:30:54;;;;;;;26.60;15.00;;;;;;;5.74;87.10;100098.67;106571;1264;97990;-80
2024/03/04 03:33:39;;;;;;;25.30;14.80;;;;;;;5.73;87.34;100102.70;106488;1263;98037;-81
2024/03/04 03:36:25;;;;;;;25.60;15.60;;;;;;;5.73;87.52;100104.00;106452;1260;102248;-79
2024/03/04 03:39:12;;;;;;;27.00;15.30;;;;;;;5.72;87.74;100104.23;106459;1260;100089;-80
2024/03/04 03:41:59;;;;;;;27.20;16.60;;;;;;;5.73;87.81;100108.32;106394;1260;97972;-78
2024/03/04 03:44:45;;;;;;;32.40;16.80;;;;;;;5.74;87.96;100108.54;106326;1263;97941;-79
2024/03/04 03:47:31;;;;;;;28.50;16.20;;;;;;;5.76;88.11;100111.60;106584;1261;97893;-80
2024/03/04 03:50:17;;;;;;;26.50;15.10;;;;;;;5.77;88.35;100112.73;106418;1261;102693;-79
2024/03/04 03:53:03;;;;;;;29.00;16.10;;;;;;;5.77;88.27;100113.64;106341;1263;99087;-78
2024/03/04 03:55:48;;;;;;;31.00;16.80;;;;;;;5.79;88.71;100111.26;106398;1261;97985;-80
2024/03/04 03:58:33;;;;;;;29.70;16.60;;;;;;;5.81;88.56;100106.05;106270;1261;96158;-80
2024/03/04 04:01:19;;;;;;;24.60;15.70;;;;;;;5.81;88.66;100105.84;106004;1261;98498;-80
2024/03/04 04:04:05;;;;;;;28.70;16.50;;;;;;;5.82;88.78;100103.95;105918;1263;101377;-80
2024/03/04 04:06:51;;;;;;;26.20;15.90;;;;;;;5.83;88.74;100107.98;105913;1261;99157;-79
2024/03/04 04:09:37;;;;;;;27.90;17.10;;;;;;;5.83;88.80;100109.58;105857;1263;97964;-79
2024/03/04 04:12:22;;;;;;;29.30;17.10;;;;;;;5.82;88.92;100111.66;105813;1263;98067;-79
2024/03/04 04:15:09;;;;;;;29.30;16.50;;;;;;;5.80;88.94;100117.52;105857;1260;97653;-79
2024/03/04 04:17:54;;;;;;;28.40;15.70;;;;;;;5.80;89.18;100126.15;105928;1264;101403;-80
2024/03/04 04:20:40;;;;;;;25.30;16.30;;;;;;;5.81;89.14;100129.98;105822;1261;99971;-79
2024/03/04 04:23:26;;;;;;;25.00;14.80;;;;;;;5.77;89.29;100124.52;105869;1263;97957;-78
2024/03/04 04:26:11;;;;;;;23.80;15.20;;;;;;;5.75;89.45;100128.54;106027;1263;98088;-80
2024/03/04 04:28:57;;;;;;;25.50;15.60;;;;;;;5.70;89.50;100126.83;105838;1261;98652;-79
2024/03/04 04:31:42;;;;;;;25.60;14.40;;;;;;;5.65;89.80;100124.86;106278;1260;102400;-80
2024/03/04 04:34:28;;;;;;;22.80;14.50;;;;;;;5.61;90.11;100119.48;105873;1260;99094;-79
2024/03/04 04:37:14;;;;;;;28.80;15.40;;;;;;;5.59;90.53;100119.19;105876;1264;98488;-80
2024/03/04 04:39:59;;;;;;;24.90;16.00;;;;;;;5.56;90.58;100123.23;105845;1261;97871;-79
2024/03/04 04:42:45;;;;;;;25.40;14.80;;;;;;;5.50;90.80;100125.23;105886;1259;97980;-80
2024/03/04 04:45:30;;;;;;;31.00;16.10;;;;;;;5.43;91.03;100129.67;106464;1260;102975;-80
2024/03/04 04:48:16;;;;;;;26.40;15.10;;;;;;;5.39;91.37;100133.36;106341;1261;99810;-79
2024/03/04 04:51:02;;;;;;;22.20;14.30;;;;;;;5.37;91.69;100136.74;106075;1260;99038;-80
2024/03/04 04:53:48;;;;;;;27.40;14.50;;;;;;;5.36;91.90;100140.89;106164;1261;98557;-81
2024/03/04 04:56:34;;;;;;;20.90;13.80;;;;;;;5.35;92.06;100142.64;105853;1260;99379;-81
2024/03/04 04:59:19;;;;;;;25.40;15.20;;;;;;;5.32;92.39;100140.29;105970;1260;101448;-80
2024/03/04 05:02:05;;;;;;;26.70;14.80;;;;;;;5.31;92.73;100139.83;106175;1263;99085;-80
2024/03/04 05:04:50;;;;;;;24.90;14.60;;;;;;;5.32;92.75;100140.98;106495;1264;97906;-81
2024/03/04 05:07:36;;;;;;;25.40;15.30;;;;;;;5.32;93.01;100144.00;106317;1265;98637;-80
2024/03/04 05:10:22;;;;;;;25.90;15.30;;;;;;;5.32;93.04;100145.19;106358;1260;98857;-80
2024/03/04 05:13:09;;;;;;;23.00;14.70;;;;;;;5.30;93.07;100144.52;106337;1260;101398;-80
2024/03/04 05:15:54;;;;;;;29.40;15.20;;;;;;;5.31;93.23;100151.55;106449;1261;99127;-81
2024/03/04 05:18:40;;;;;;;25.10;15.50;;;;;;;5.31;93.36;100153.00;106465;1261;97955;-80
2024/03/04 05:21:26;;;;;;;24.80;14.10;;;;;;;5.29;93.57;100150.34;106337;1259;98047;-81
2024/03/04 05:24:12;;;;;;;25.20;16.50;;;;;;;5.28;93.55;100155.61;106468;1261;97906;-80
2024/03/04 05:26:57;;;;;;;30.70;16.20;;;;;;;5.26;93.73;100155.57;106463;1260;101447;-81
2024/03/04 05:29:42;;;;;;;23.00;15.20;;;;;;;5.27;93.92;100156.58;106495;1261;99081;-80
2024/03/04 05:32:27;;;;;;;29.10;16.00;;;;;;;5.28;94.14;100156.68;106379;1259;97936;-80
2024/03/04 05:35:14;;;;;;;28.90;16.30;;;;;;;5.29;94.24;100157.05;105841;1260;97961;-78
2024/03/04 05:38:00;;;;;;;34.30;15.00;;;;;;;5.29;94.17;100160.99;106442;1260;100229;-81
2024/03/04 05:40:46;;;;;;;29.90;15.40;;;;;;;5.28;94.29;100162.19;106434;1260;101456;-80
2024/03/04 05:43:31;;;;;;;28.80;16.10;;;;;;;5.28;94.47;100161.66;106330;1261;99142;-82
2024/03/04 05:46:17;;;;;;;23.80;15.80;;;;;;;5.27;94.41;100159.77;106241;1260;99139;-81
2024/03/04 05:49:03;;;;;;;29.00;15.60;;;;;;;5.27;94.52;100163.02;106139;1260;97964;-80
2024/03/04 05:51:52;;;;;;;28.40;15.50;;;;;;;5.25;94.70;100162.29;105948;1261;99577;-80
2024/03/04 05:54:37;;;;;;;22.20;14.20;;;;;;;5.24;94.84;100161.02;106097;1260;101387;-79
2024/03/04 05:57:23;;;;;;;24.00;14.80;;;;;;;5.23;94.83;100165.47;106195;1259;99186;-79
2024/03/04 06:00:16;;;;;;;25.00;15.30;;;;;;;5.24;94.97;100165.36;106016;1260;99037;-79
2024/03/04 06:03:02;;;;;;;28.70;15.50;;;;;;;5.25;95.09;100165.67;106100;1264;97970;-80
2024/03/04 06:05:48;;;;;;;27.50;16.20;;;;;;;5.25;95.24;100165.80;106105;1259;98374;-80
2024/03/04 06:08:33;;;;;;;29.70;16.00;;;;;;;5.23;95.16;100166.09;106227;1261;101384;-80
2024/03/04 06:11:19;;;;;;;25.30;14.90;;;;;;;5.18;95.18;100170.64;106132;1262;101497;-80
2024/03/04 06:14:04;;;;;;;25.40;16.40;;;;;;;5.16;95.43;100175.70;105707;1262;99219;-79
2024/03/04 06:16:50;;;;;;;25.40;15.90;;;;;;;5.15;95.53;100179.13;105711;1259;97981;-80
2024/03/04 06:19:35;;;;;;;20.60;14.90;;;;;;;5.14;95.90;100180.70;106248;1259;99711;-81
2024/03/04 06:22:21;;;;;;;27.80;15.60;;;;;;;5.12;96.03;100178.19;106277;1263;102691;-80
2024/03/04 06:25:07;;;;;;;23.80;15.60;;;;;;;5.13;96.18;100177.05;106290;1263;99079;-81
2024/03/04 06:27:53;;;;;;;24.10;15.00;;;;;;;5.14;96.40;100175.50;106491;1260;98559;-81
2024/03/04 06:30:38;;;;;;;25.40;16.10;;;;;;;5.16;96.64;100182.57;105517;1264;98091;-78
2024/03/04 06:33:24;;;;;;;24.40;15.80;;;;;;;5.16;96.60;100185.52;105982;1261;98405;-80
2024/03/04 06:36:10;;;;;;;30.40;16.10;;;;;;;5.17;96.65;100185.16;105924;1263;102632;-82
2024/03/04 06:38:55;;;;;;;26.50;15.30;;;;;;;5.17;96.82;100185.83;106285;1259;100383;-81
2024/03/04 06:41:40;;;;;;;27.60;15.50;;;;;;;5.19;97.03;100184.14;106218;1263;99012;-80
2024/03/04 06:44:26;;;;;;;30.90;16.80;;;;;;;5.22;97.13;100183.52;106182;1260;98039;-81
2024/03/04 06:47:12;;;;;;;27.60;16.90;;;;;;;5.23;97.14;100178.08;106361;1260;97976;-80
2024/03/04 06:49:58;;;;;;;27.00;16.30;;;;;;;5.25;97.51;100175.40;106513;1260;102716;-80
2024/03/04 06:52:43;;;;;;;26.80;15.70;;;;;;;5.28;97.54;100173.97;106578;1264;99763;-80
2024/03/04 06:55:29;;;;;;;27.20;16.40;;;;;;;5.32;97.62;100174.30;106340;1260;97887;-80
2024/03/04 06:58:15;;;;;;;26.60;16.70;;;;;;;5.36;97.90;100170.09;106350;1260;97967;-81
2024/03/04 07:01:00;;;;;;;26.50;15.90;;;;;;;5.39;97.53;100168.24;106511;1260;98478;-82
2024/03/04 07:03:46;;;;;;;28.20;17.20;;;;;;;5.40;97.54;100170.08;106475;1259;101375;-80
2024/03/04 07:06:32;;;;;;;26.70;17.00;;;;;;;5.41;97.76;100169.10;106468;1259;100919;-81
2024/03/04 07:09:18;;;;;;;28.70;15.90;;;;;;;5.44;98.16;100169.29;106449;1260;99306;-81
2024/03/04 07:12:04;;;;;;;23.90;16.30;;;;;;;5.50;98.21;100171.85;106298;1264;98050;-81
2024/03/04 07:14:49;;;;;;;28.00;17.10;;;;;;;5.53;98.17;100173.44;106539;1259;98438;-80
2024/03/04 07:17:35;;;;;;;29.30;17.00;;;;;;;5.56;98.34;100170.63;105962;1262;103044;-80
2024/03/04 07:20:21;;;;;;;28.00;16.60;;;;;;;5.60;98.23;100175.88;106341;1259;99345;-80
2024/03/04 07:23:08;;;;;;;24.40;15.50;;;;;;;5.64;98.32;100174.58;106609;1259;98688;-80
2024/03/04 07:25:54;;;;;;;29.80;16.20;;;;;;;5.67;98.23;100178.08;106061;1262;97986;-79
2024/03/04 07:28:43;;;;;;;29.80;17.20;;;;;;;5.73;98.17;100179.42;105968;1262;98719;-79
2024/03/04 07:31:29;;;;;;;27.60;17.30;;;;;;;5.77;98.11;100180.36;106269;1259;101354;-80
2024/03/04 07:34:15;;;;;;;28.10;16.00;;;;;;;5.81;98.28;100180.16;105857;1259;99871;-79
2024/03/04 07:37:01;;;;;;;30.40;16.60;;;;;;;5.85;98.29;100182.67;105805;1260;97996;-79
2024/03/04 07:39:47;;;;;;;28.70;17.70;;;;;;;5.90;98.33;100184.48;105880;1259;98933;-82
2024/03/04 07:42:33;;;;;;;31.10;16.80;;;;;;;5.95;98.46;100189.96;106315;1259;98396;-79
2024/03/04 07:45:19;;;;;;;30.70;17.80;;;;;;;5.99;98.42;100191.92;105895;1263;102607;-80
2024/03/04 07:48:05;;;;;;;29.10;16.50;;;;;;;6.02;98.26;100195.23;106196;1262;99163;-81
2024/03/04 07:50:51;;;;;;;30.50;18.60;;;;;;;6.04;98.33;100193.67;106422;1262;99018;-81
2024/03/04 07:53:36;;;;;;;32.60;19.40;;;;;;;6.09;98.48;100196.00;106471;1260;97984;-80
2024/03/04 07:56:22;;;;;;;31.60;17.70;;;;;;;6.13;98.36;100199.59;106637;1263;98548;-87
2024/03/04 07:59:08;;;;;;;41.70;21.50;;;;;;;6.18;98.77;100199.38;106346;1260;102001;-86
2024/03/04 08:01:54;;;;;;;38.40;19.50;;;;;;;6.24;98.36;100200.03;106065;1260;99264;-85
2024/03/04 08:04:46;;;;;;;32.70;20.10;;;;;;;6.29;98.84;100200.86;106112;1264;98012;-86
2024/03/04 08:07:31;;;;;;;32.90;20.60;;;;;;;6.33;98.45;100203.97;106081;1263;97976;-84
2024/03/04 08:10:17;;;;;;;32.20;20.10;;;;;;;6.36;98.38;100204.73;105967;1259;97932;-85
2024/03/04 08:13:04;;;;;;;34.10;19.70;;;;;;;6.37;98.26;100200.38;106011;1259;102672;-85
2024/03/04 08:15:49;;;;;;;34.50;20.90;;;;;;;6.37;98.28;100196.29;105862;1259;100805;-83
2024/03/04 08:18:35;;;;;;;37.60;23.10;;;;;;;6.38;98.26;100201.61;106062;1264;97785;-87
2024/03/04 08:21:22;;;;;;;40.70;22.70;;;;;;;6.43;98.14;100205.88;106029;1260;99406;-83
2024/03/04 08:24:07;;;;;;;35.60;19.70;;;;;;;6.46;97.91;100209.63;106017;1259;97976;-83
2024/03/04 08:26:58;;;;;;;31.80;19.20;;;;;;;6.49;97.77;100207.86;106033;1263;102723;-84
2024/03/04 08:29:44;;;;;;;35.90;19.60;;;;;;;6.53;97.97;100203.66;106266;1262;99148;-86
2024/03/04 08:32:30;;;;;;;29.40;18.40;;;;;;;6.57;97.83;100204.32;105992;1259;99948;-83
2024/03/04 08:35:16;;;;;;;28.50;18.40;;;;;;;6.58;97.73;100205.98;106193;1259;97883;-82
2024/03/04 08:38:02;;;;;;;28.50;18.30;;;;;;;6.59;97.77;100205.08;106227;1259;97870;-78
2024/03/04 08:40:48;;;;;;;34.10;19.60;;;;;;;6.64;97.95;100209.02;105594;1259;101430;-77
2024/03/04 08:43:34;;;;;;;30.30;18.30;;;;;;;6.67;97.88;100211.84;105679;1259;99409;-78
2024/03/04 08:46:19;;;;;;;28.00;18.60;;;;;;;6.71;97.79;100209.94;105750;1259;98963;-78
2024/03/04 08:49:04;;;;;;;28.90;19.00;;;;;;;6.73;97.38;100209.89;105625;1263;98008;-78
2024/03/04 08:51:50;;;;;;;31.90;18.80;;;;;;;6.75;97.58;100212.35;106009;1259;98515;-81
2024/03/04 08:54:36;;;;;;;35.50;18.80;;;;;;;6.75;97.22;100206.52;106111;1259;102636;-81
2024/03/04 08:57:22;;;;;;;35.60;20.50;;;;;;;6.73;96.79;100206.33;106083;1260;100203;-81
2024/03/04 09:00:08;;;;;;;33.20;20.30;;;;;;;6.77;97.32;100208.23;105809;1259;99168;-84
2024/03/04 09:02:54;;;;;;;35.90;20.90;;;;;;;6.83;97.62;100208.39;105904;1264;97942;-82
2024/03/04 09:05:43;;;;;;;28.30;20.00;;;;;;;6.88;97.40;100205.30;106305;1259;98403;-80
2024/03/04 09:08:28;;;;;;;36.10;21.30;;;;;;;6.90;97.10;100206.33;105465;1258;102571;-80
2024/03/04 09:11:14;;;;;;;34.30;21.60;;;;;;;6.92;96.89;100204.16;106212;1261;99147;-80
2024/03/04 09:13:59;;;;;;;34.60;20.90;;;;;;;6.95;96.95;100196.54;106376;1262;98076;-81
2024/03/04 09:16:45;;;;;;;33.90;20.90;;;;;;;7.02;97.16;100199.12;106182;1259;98040;-81
2024/03/04 09:19:30;;;;;;;32.50;19.40;;;;;;;7.11;97.37;100202.39;106604;1262;97967;-82
2024/03/04 09:22:16;;;;;;;34.60;21.20;;;;;;;7.20;97.52;100200.11;105576;1263;101337;-79
2024/03/04 09:25:01;;;;;;;36.60;22.50;;;;;;;7.30;97.44;100199.48;105869;1262;100605;-85
2024/03/04 09:27:47;;;;;;;32.60;20.30;;;;;;;7.36;96.79;100197.14;106016;1259;99417;-87
2024/03/04 09:30:33;;;;;;;34.70;22.60;;;;;;;7.43;96.79;100197.63;105827;1259;97964;-85
2024/03/04 09:33:19;;;;;;;34.00;20.60;;;;;;;7.49;96.64;100198.83;106039;1259;98460;-80
2024/03/04 09:36:05;;;;;;;37.00;22.20;;;;;;;7.59;97.00;100203.06;105445;1263;102712;-78
2024/03/04 09:38:51;;;;;;;34.70;21.70;;;;;;;7.66;96.54;100206.14;105402;1259;100799;-78
2024/03/04 09:41:37;;;;;;;34.20;21.20;;;;;;;7.70;96.47;100214.88;105651;1262;98298;-79
2024/03/04 09:44:27;;;;;;;39.10;22.40;;;;;;;7.74;96.05;100217.38;105609;1260;97880;-78
2024/03/04 09:47:17;;;;;;;33.60;21.90;;;;;;;7.71;95.19;100217.27;105853;1263;97850;-78
2024/03/04 09:50:03;;;;;;;36.60;22.80;;;;;;;7.64;95.05;100222.48;107434;1261;101367;-79
2024/03/04 09:52:49;;;;;;;34.60;22.40;;;;;;;7.60;94.90;100229.77;105740;1259;99110;-78
2024/03/04 09:55:35;;;;;;;34.30;22.30;;;;;;;7.59;95.82;100235.58;105523;1259;98532;-78
2024/03/04 09:58:21;;;;;;;45.00;24.20;;;;;;;7.63;95.56;100241.68;105327;1260;98461;-81
2024/03/04 10:01:07;;;;;;;38.00;22.70;;;;;;;7.61;95.14;100244.86;106238;1259;97884;-84
2024/03/04 10:03:54;;;;;;;45.80;25.20;;;;;;;7.59;95.31;100250.84;106146;1261;101485;-84
2024/03/04 10:06:39;;;;;;;40.50;22.50;;;;;;;7.56;95.05;100257.14;105970;1259;99292;-84
2024/03/04 10:09:27;;;;;;;42.60;24.80;;;;;;;7.54;94.95;100253.83;106060;1265;99383;-84
2024/03/04 10:12:13;;;;;;;41.10;24.90;;;;;;;7.54;94.97;100249.64;106255;1263;98045;-84
2024/03/04 10:15:07;;;;;;;42.50;26.20;;;;;;;7.56;94.81;100247.63;106336;1259;98076;-80
2024/03/04 10:17:55;;;;;;;44.10;25.10;;;;;;;7.59;95.18;100243.14;105402;1264;101895;-82
2024/03/04 10:20:40;;;;;;;42.30;25.80;;;;;;;7.64;95.42;100244.05;106006;1263;100393;-83
2024/03/04 10:23:26;;;;;;;40.90;25.10;;;;;;;7.68;95.42;100239.08;105922;1266;98047;-84
2024/03/04 10:26:12;;;;;;;41.90;26.50;;;;;;;7.71;95.05;100239.76;106045;1260;97983;-84
2024/03/04 10:28:58;;;;;;;41.30;24.30;;;;;;;7.76;95.25;100239.42;105947;1264;98377;-84
2024/03/04 10:31:50;;;;;;;44.10;28.10;;;;;;;7.83;95.27;100237.58;106147;1260;101430;-84
2024/03/04 10:34:37;;;;;;;41.30;24.80;;;;;;;7.92;95.33;100230.94;106042;1259;100409;-83
2024/03/04 10:37:22;;;;;;;41.80;25.50;;;;;;;7.98;95.04;100228.34;106375;1263;97861;-80
2024/03/04 10:40:10;;;;;;;40.70;24.10;;;;;;;8.02;94.82;100230.64;106001;1259;97870;-84
2024/03/04 10:43:00;;;;;;;40.10;24.70;;;;;;;8.04;94.82;100227.66;105910;1264;97969;-86
2024/03/04 10:45:46;;;;;;;37.00;23.80;;;;;;;8.12;95.17;100226.44;106016;1263;101433;-78
2024/03/04 10:48:33;;;;;;;39.60;23.90;;;;;;;8.21;94.91;100225.39;105991;1263;99172;-83
2024/03/04 10:51:19;;;;;;;37.40;24.50;;;;;;;8.24;94.21;100219.34;105851;1260;98730;-82
2024/03/04 10:54:06;;;;;;;42.00;24.60;;;;;;;8.19;93.36;100224.55;106134;1259;97898;-85
2024/03/04 10:57:04;;;;;;;41.90;23.70;;;;;;;8.10;93.13;100227.40;106788;1259;97540;-83
2024/03/04 11:03:15;;;;;;;42.00;24.90;;;;;;;8.14;93.54;100221.25;106498;1264;99151;-85
2024/03/04 11:06:03;;;;;;;36.70;24.20;;;;;;;8.15;93.53;100211.71;106099;1264;99393;-83
2024/03/04 11:09:15;;;;;;;38.50;24.40;;;;;;;8.10;92.87;100209.43;106227;1263;98698;-87
2024/03/04 11:12:32;;;;;;;37.20;24.90;;;;;;;8.03;93.00;100211.39;105944;1260;98543;-90
2024/03/04 11:15:20;;;;;;;42.90;26.50;;;;;;;7.95;92.62;100213.92;105566;1261;102530;-78
2024/03/04 11:18:11;;;;;;;41.30;24.50;;;;;;;7.87;92.82;100215.55;105716;1263;99059;-79
2024/03/04 11:20:58;;;;;;;41.90;26.00;;;;;;;7.82;93.01;100214.73;106304;1259;98454;-79
2024/03/04 11:23:46;;;;;;;46.00;27.90;;;;;;;7.77;92.90;100218.13;105400;1259;97965;-76
2024/03/04 11:26:34;;;;;;;38.40;25.00;;;;;;;7.72;93.02;100219.27;105350;1262;97758;-75
2024/03/04 11:29:21;;;;;;;43.90;23.90;;;;;;;7.71;93.19;100225.73;105154;1259;101399;-77
2024/03/04 11:32:10;;;;;;;38.50;24.00;;;;;;;7.70;93.33;100216.80;105654;1261;99189;-77
2024/03/04 11:35:07;;;;;;;38.70;25.40;;;;;;;7.72;93.51;100216.20;106589;1259;97451;-77
2024/03/04 11:38:06;;;;;;;36.70;25.40;;;;;;;7.77;94.01;100218.16;105694;1259;98077;-77
2024/03/04 11:40:57;;;;;;;44.60;24.80;;;;;;;7.84;94.03;100217.18;105768;1263;98559;-77
2024/03/04 11:43:44;;;;;;;40.10;24.80;;;;;;;7.91;94.29;100215.46;105692;1263;102684;-77
2024/03/04 11:46:33;;;;;;;40.30;25.10;;;;;;;7.97;93.99;100212.64;105695;1259;99272;-77
2024/03/04 11:49:26;;;;;;;41.30;24.70;;;;;;;8.00;93.85;100207.04;105708;1262;97972;-78
2024/03/04 11:52:17;;;;;;;40.00;25.20;;;;;;;8.09;94.50;100207.44;105253;1259;98370;-77
2024/03/04 11:55:02;;;;;;;42.40;25.80;;;;;;;8.20;94.33;100206.86;105284;1259;97894;-78
2024/03/04 11:57:48;;;;;;;44.40;26.90;;;;;;;8.25;94.16;100211.90;105313;1259;101919;-78
2024/03/04 12:00:34;;;;;;;41.20;26.30;;;;;;;8.26;93.61;100210.63;105203;1259;99103;-77
2024/03/04 12:03:19;;;;;;;48.70;29.10;;;;;;;8.25;93.26;100206.44;105204;1265;97987;-78
2024/03/04 12:06:06;;;;;;;41.70;26.80;;;;;;;8.25;93.20;100209.94;105138;1259;98059;-77
2024/03/04 12:08:52;;;;;;;42.70;26.20;;;;;;;8.26;93.30;100208.58;105242;1263;98511;-77
2024/03/04 12:11:38;;;;;;;34.60;23.30;;;;;;;8.24;92.89;100206.54;105425;1262;103214;-77
2024/03/04 12:14:24;;;;;;;39.50;25.80;;;;;;;8.20;92.79;100202.40;105303;1262;100339;-77
2024/03/04 12:17:12;;;;;;;37.50;25.70;;;;;;;8.15;92.74;100202.61;105184;1259;97973;-77
2024/03/04 12:19:57;;;;;;;43.10;26.20;;;;;;;8.13;93.01;100201.30;105139;1262;97987;-76
2024/03/04 12:22:43;;;;;;;40.90;26.00;;;;;;;8.12;93.07;100200.10;105177;1262;97831;-77
2024/03/04 12:25:29;;;;;;;44.40;26.40;;;;;;;8.11;93.24;100203.41;106234;1259;132265;-87
2024/03/04 12:28:17;;;;;;;43.80;24.60;;;;;;;8.14;93.31;100206.65;106080;1262;100273;-77
2024/03/04 12:31:08;;;;;;;42.60;25.90;;;;;;;8.15;92.99;100209.21;105440;1259;98394;-78
2024/03/04 12:33:54;;;;;;;39.70;25.40;;;;;;;8.14;92.79;100208.79;105403;1259;98038;-78
2024/03/04 12:36:49;;;;;;;39.70;24.40;;;;;;;8.11;92.60;100210.27;105428;1259;97887;-78
2024/03/04 12:39:35;;;;;;;44.10;24.70;;;;;;;8.05;92.45;100212.09;105269;1262;101562;-77